createdAt,value
2022-12-20T00:01:32.528Z,22.62
2022-12-20T00:04:03.454Z,24.95
2022-12-20T00:06:31.496Z,24.30
2022-12-20T00:09:01.973Z,24.42
2022-12-20T00:11:30.357Z,22.42
2022-12-20T00:13:59.033Z,21.27
2022-12-20T00:16:31.045Z,22.62
2022-12-20T00:19:01.369Z,21.42
2022-12-20T00:21:30.077Z,23.27
2022-12-20T00:23:58.582Z,22.80
2022-12-20T00:26:29.748Z,24.35
2022-12-20T00:28:58.169Z,24.45
2022-12-20T00:31:27.834Z,20.20
2022-12-20T00:33:57.375Z,22.87
2022-12-20T00:36:28.298Z,24.58
2022-12-20T00:38:59.917Z,25.58
2022-12-20T00:41:30.027Z,23.90
2022-12-20T00:43:58.120Z,22.27
2022-12-20T00:46:26.786Z,21.73
2022-12-20T00:48:56.700Z,24.30
2022-12-20T00:51:27.161Z,24.55
2022-12-20T00:53:55.544Z,21.37
2022-12-20T00:56:23.545Z,21.65
2022-12-20T00:58:54.721Z,23.58
2022-12-20T01:01:28.808Z,21.10
2022-12-20T01:03:56.813Z,23.85
2022-12-20T01:06:26.150Z,23.23
2022-12-20T01:08:55.797Z,22.30
2022-12-20T01:11:26.754Z,20.95
2022-12-20T01:13:57.583Z,22.27
2022-12-20T01:16:31.085Z,22.60
2022-12-20T01:18:58.841Z,22.85
2022-12-20T01:21:27.587Z,21.17
2022-12-20T01:23:56.658Z,22.15
2022-12-20T01:26:27.204Z,21.45
2022-12-20T01:28:57.352Z,18.92
2022-12-20T01:31:25.541Z,20.92
2022-12-20T01:33:53.803Z,22.42
2022-12-20T01:36:26.254Z,18.40
2022-12-20T01:39:02.051Z,21.27
2022-12-20T01:41:31.735Z,20.40
2022-12-20T01:44:02.507Z,18.20
2022-12-20T01:46:35.377Z,19.33
2022-12-20T01:49:23.652Z,19.85
2022-12-20T01:51:53.914Z,18.70
2022-12-20T01:54:27.205Z,19.60
2022-12-20T01:57:00.583Z,19.27
2022-12-20T01:59:29.604Z,20.02
2022-12-20T02:02:03.648Z,18.98
2022-12-20T02:04:31.815Z,22.25
2022-12-20T02:07:00.400Z,20.23
2022-12-20T02:09:28.823Z,17.95
2022-12-20T02:12:18.704Z,21.65
2022-12-20T02:15:14.390Z,19.37
2022-12-20T02:17:50.027Z,26.42
2022-12-20T02:20:47.987Z,19.65
2022-12-20T02:23:47.312Z,20.58
2022-12-20T02:26:50.334Z,21.10
2022-12-20T02:29:28.781Z,22.77
2022-12-20T02:32:06.276Z,21.30
2022-12-20T02:34:38.627Z,20.70
2022-12-20T02:37:06.718Z,21.40
2022-12-20T02:39:37.931Z,19.85
2022-12-20T02:42:11.675Z,20.50
2022-12-20T02:45:04.499Z,21.33
2022-12-20T02:47:49.194Z,20.08
2022-12-20T02:50:28.148Z,22.33
2022-12-20T02:52:56.442Z,22.40
2022-12-20T02:55:33.125Z,21.10
2022-12-20T02:58:17.982Z,22.98
2022-12-20T03:00:48.817Z,20.30
2022-12-20T03:03:25.925Z,21.25
2022-12-20T03:05:57.143Z,19.70
2022-12-20T03:08:26.098Z,20.10
2022-12-20T03:10:55.176Z,22.58
2022-12-20T03:13:24.997Z,22.15
2022-12-20T03:15:52.907Z,22.15
2022-12-20T03:18:20.659Z,21.60
2022-12-20T03:20:48.397Z,21.83
2022-12-20T03:23:16.094Z,21.80
2022-12-20T03:25:43.860Z,20.17
2022-12-20T03:28:11.994Z,21.37
2022-12-20T03:30:40.106Z,20.33
2022-12-20T03:33:08.490Z,21.10
2022-12-20T03:35:36.213Z,22.80
2022-12-20T03:38:03.926Z,20.52
2022-12-20T03:40:31.955Z,22.48
2022-12-20T03:42:59.814Z,20.17
2022-12-20T03:45:27.584Z,23.38
2022-12-20T03:47:55.361Z,22.60
2022-12-20T03:50:23.072Z,18.55
2022-12-20T03:52:51.074Z,21.70
2022-12-20T03:55:18.985Z,22.92
2022-12-20T03:57:46.624Z,21.00
2022-12-20T04:00:15.194Z,19.80
2022-12-20T04:02:43.213Z,21.85
2022-12-20T04:05:11.028Z,22.15
2022-12-20T04:07:38.762Z,21.60
2022-12-20T04:10:07.212Z,22.00
2022-12-20T04:12:34.863Z,21.80
2022-12-20T04:15:02.630Z,21.12
2022-12-20T04:17:30.384Z,22.50
2022-12-20T04:19:58.019Z,25.70
2022-12-20T04:22:25.783Z,19.62
2022-12-20T04:24:53.496Z,23.05
2022-12-20T04:27:21.559Z,24.00
2022-12-20T04:29:49.239Z,19.55
2022-12-20T04:32:16.945Z,22.83
2022-12-20T04:34:44.625Z,23.10
2022-12-20T04:37:12.303Z,22.37
2022-12-20T04:39:39.944Z,20.30
2022-12-20T04:42:07.700Z,22.15
2022-12-20T04:44:35.423Z,18.98
2022-12-20T04:47:03.450Z,22.00
2022-12-20T04:49:31.197Z,20.45
2022-12-20T04:52:18.826Z,22.50
2022-12-20T04:54:47.622Z,24.52
2022-12-20T04:57:15.702Z,22.87
2022-12-20T04:59:43.543Z,21.83
2022-12-20T05:02:11.338Z,19.90
2022-12-20T05:04:39.043Z,21.80
2022-12-20T05:07:06.715Z,21.92
2022-12-20T05:09:34.381Z,20.05
2022-12-20T05:12:02.091Z,20.95
2022-12-20T05:14:29.700Z,21.65
2022-12-20T05:16:57.331Z,23.35
2022-12-20T05:19:25.058Z,22.62
2022-12-20T05:22:11.441Z,21.45
2022-12-20T05:24:57.699Z,23.10
2022-12-20T05:27:25.354Z,22.85
2022-12-20T05:29:53.017Z,21.42
2022-12-20T05:32:20.662Z,22.02
2022-12-20T05:34:48.393Z,22.87
2022-12-20T05:37:16.065Z,19.27
2022-12-20T05:39:43.700Z,23.65
2022-12-20T05:42:11.399Z,20.75
2022-12-20T05:44:39.202Z,20.55
2022-12-20T05:47:07.005Z,20.95
2022-12-20T05:49:35.702Z,19.85
2022-12-20T05:52:04.584Z,22.37
2022-12-20T05:54:32.351Z,19.75
2022-12-20T05:57:00.001Z,23.17
2022-12-20T05:59:27.730Z,21.37
2022-12-20T06:01:56.057Z,24.23
2022-12-20T06:04:24.048Z,22.62
2022-12-20T06:06:51.791Z,23.55
2022-12-20T06:09:19.773Z,22.13
2022-12-20T06:11:48.673Z,23.55
2022-12-20T06:14:16.366Z,22.20
2022-12-20T06:16:44.147Z,20.62
2022-12-20T06:19:16.129Z,21.67
2022-12-20T06:21:48.856Z,23.00
2022-12-20T06:24:16.834Z,26.52
2022-12-20T06:26:44.653Z,25.48
2022-12-20T06:29:15.322Z,25.75
2022-12-20T06:31:43.441Z,23.42
2022-12-20T06:34:11.235Z,28.40
2022-12-20T06:36:38.982Z,26.73
2022-12-20T06:39:09.818Z,24.48
2022-12-20T06:41:38.500Z,28.30
2022-12-20T06:44:06.326Z,24.77
2022-12-20T06:46:34.578Z,24.48
2022-12-20T06:49:02.375Z,23.52
2022-12-20T06:51:30.068Z,25.55
2022-12-20T06:53:57.807Z,26.08
2022-12-20T06:56:25.509Z,26.73
2022-12-20T06:58:55.902Z,24.52
2022-12-20T07:01:23.737Z,23.20
2022-12-20T07:03:51.766Z,25.15
2022-12-20T07:06:19.550Z,27.30
2022-12-20T07:08:47.304Z,24.75
2022-12-20T07:11:15.025Z,25.02
2022-12-20T07:13:42.857Z,24.83
2022-12-20T07:16:11.344Z,23.52
2022-12-20T07:18:39.094Z,25.98
2022-12-20T07:21:07.496Z,26.12
2022-12-20T07:23:35.340Z,25.77
2022-12-20T07:26:04.941Z,24.20
2022-12-20T07:28:32.806Z,27.85
2022-12-20T07:31:04.494Z,24.87
2022-12-20T07:33:32.789Z,24.67
2022-12-20T07:36:09.273Z,28.23
2022-12-20T07:38:37.160Z,22.73
2022-12-20T07:41:12.723Z,21.90
2022-12-20T07:43:40.790Z,22.98
2022-12-20T07:46:09.703Z,23.75
2022-12-20T07:48:37.533Z,20.77
2022-12-20T07:51:16.103Z,21.55
2022-12-20T07:53:49.707Z,20.95
2022-12-20T07:56:19.427Z,19.52
2022-12-20T07:58:47.196Z,22.55
2022-12-20T08:01:15.599Z,20.83
2022-12-20T08:03:50.814Z,21.87
2022-12-20T08:06:19.869Z,18.52
2022-12-20T08:08:56.721Z,19.58
2022-12-20T08:11:25.806Z,21.30
2022-12-20T08:13:57.832Z,19.25
2022-12-20T08:16:27.042Z,20.83
2022-12-20T08:18:54.737Z,21.77
2022-12-20T08:21:22.430Z,20.40
2022-12-20T08:23:50.085Z,20.92
2022-12-20T08:26:18.673Z,20.95
2022-12-20T08:28:46.457Z,21.50
2022-12-20T08:31:14.456Z,20.92
2022-12-20T08:33:43.764Z,23.35
2022-12-20T08:36:13.795Z,22.25
2022-12-20T08:38:42.292Z,23.87
2022-12-20T08:41:15.129Z,21.35
2022-12-20T08:43:43.791Z,21.95
2022-12-20T08:46:13.533Z,21.45
2022-12-20T08:48:41.752Z,21.17
2022-12-20T08:51:11.530Z,22.83
2022-12-20T08:53:40.374Z,22.13
2022-12-20T08:56:16.925Z,23.12
2022-12-20T08:58:45.816Z,24.25
2022-12-20T09:01:16.195Z,22.75
2022-12-20T09:03:45.059Z,24.05
2022-12-20T09:06:16.893Z,24.63
2022-12-20T09:08:46.867Z,26.95
2022-12-20T09:11:17.980Z,22.45
2022-12-20T09:13:48.002Z,22.20
2022-12-20T09:16:18.423Z,22.77
2022-12-20T09:18:50.219Z,23.08
2022-12-20T09:21:18.369Z,25.70
2022-12-20T09:23:46.444Z,22.45
2022-12-20T09:26:16.668Z,22.17
2022-12-20T09:28:45.795Z,24.95
2022-12-20T09:31:15.806Z,25.45
2022-12-20T09:33:43.809Z,25.17
2022-12-20T09:36:16.678Z,23.77
2022-12-20T09:38:45.152Z,23.20
2022-12-20T09:41:26.516Z,25.62
2022-12-20T09:43:54.702Z,25.37
2022-12-20T09:46:23.994Z,24.20
2022-12-20T09:48:53.201Z,23.27
2022-12-20T09:51:32.766Z,21.77
2022-12-20T09:54:00.491Z,23.77
2022-12-20T09:56:32.800Z,26.58
2022-12-20T09:59:07.186Z,22.27
2022-12-20T10:01:40.071Z,24.75
2022-12-20T10:04:14.807Z,24.75
2022-12-20T10:07:07.782Z,25.10
2022-12-20T10:09:49.596Z,25.35
2022-12-20T10:12:26.862Z,23.73
2022-12-20T10:14:57.310Z,26.70
2022-12-20T10:17:51.445Z,23.60
2022-12-20T10:20:43.041Z,29.17
2022-12-20T10:23:33.036Z,24.20
2022-12-20T10:26:02.112Z,22.40
2022-12-20T10:28:32.881Z,23.83
2022-12-20T10:31:08.052Z,22.55
2022-12-20T10:33:36.044Z,21.75
2022-12-20T10:36:24.031Z,25.73
2022-12-20T10:38:57.251Z,22.83
2022-12-20T10:41:28.914Z,25.60
2022-12-20T10:44:07.161Z,23.10
2022-12-20T10:46:46.543Z,23.38
2022-12-20T10:49:35.523Z,20.98
2022-12-20T10:52:14.429Z,19.73
2022-12-20T10:54:44.617Z,19.50
2022-12-20T10:57:24.977Z,20.17
2022-12-20T11:00:01.468Z,19.65
2022-12-20T11:02:40.953Z,19.20
2022-12-20T11:05:12.977Z,23.48
2022-12-20T11:08:34.739Z,19.45
2022-12-20T11:11:17.423Z,17.80
2022-12-20T11:13:46.962Z,18.90
2022-12-20T11:16:27.929Z,19.17
2022-12-20T11:19:20.285Z,19.58
2022-12-20T11:22:16.992Z,18.35
2022-12-20T11:24:54.728Z,15.68
2022-12-20T11:27:41.479Z,17.15
2022-12-20T11:30:26.545Z,18.02
2022-12-20T11:33:25.671Z,19.02
2022-12-20T11:36:22.271Z,24.73
2022-12-20T11:39:27.542Z,20.55
2022-12-20T11:42:23.001Z,21.20
2022-12-20T11:45:14.892Z,19.60
2022-12-20T11:48:10.940Z,21.00
2022-12-20T11:51:07.584Z,20.37
2022-12-20T11:53:48.613Z,19.12
2022-12-20T11:56:29.237Z,19.75
2022-12-20T11:59:06.767Z,19.58
2022-12-20T12:01:45.000Z,22.90
2022-12-20T12:04:18.176Z,22.65
2022-12-20T12:07:00.535Z,21.08
2022-12-20T12:09:37.360Z,19.25
2022-12-20T12:12:19.738Z,19.30
2022-12-20T12:15:02.832Z,21.83
2022-12-20T12:17:48.268Z,21.15
2022-12-20T12:20:24.821Z,20.40
2022-12-20T12:22:57.356Z,23.65
2022-12-20T12:25:25.310Z,21.30
2022-12-20T12:27:53.099Z,19.95
2022-12-20T12:30:21.019Z,20.65
2022-12-20T12:33:01.947Z,22.25
2022-12-20T12:36:24.591Z,21.40
2022-12-20T12:39:13.957Z,20.20
2022-12-20T12:42:02.807Z,19.77
2022-12-20T12:45:02.901Z,20.98
2022-12-20T12:48:09.241Z,20.55
2022-12-20T12:50:43.650Z,20.65
2022-12-20T12:53:19.709Z,21.27
2022-12-20T12:55:52.120Z,21.60
2022-12-20T12:58:26.070Z,21.42
2022-12-20T13:01:13.135Z,21.40
2022-12-20T13:03:41.029Z,21.73
2022-12-20T13:06:27.304Z,18.17
2022-12-20T13:08:58.034Z,19.98
2022-12-20T13:11:32.911Z,19.62
2022-12-20T13:14:26.347Z,21.40
2022-12-20T13:17:16.214Z,20.15
2022-12-20T13:19:56.269Z,19.77
2022-12-20T13:22:27.812Z,19.40
2022-12-20T13:25:00.484Z,20.77
2022-12-20T13:27:38.239Z,21.80
2022-12-20T13:30:08.558Z,21.95
2022-12-20T13:32:48.256Z,20.15
2022-12-20T13:35:28.901Z,19.77
2022-12-20T13:38:06.005Z,19.95
2022-12-20T13:40:49.891Z,20.75
2022-12-20T13:43:20.492Z,18.58
2022-12-20T13:45:58.709Z,19.40
2022-12-20T13:48:50.936Z,18.98
2022-12-20T13:51:21.501Z,20.27
2022-12-20T13:54:04.312Z,19.23
2022-12-20T13:56:39.681Z,19.87
2022-12-20T13:59:20.197Z,19.08
2022-12-20T14:01:50.701Z,18.95
2022-12-20T14:04:20.239Z,18.08
2022-12-20T14:07:01.424Z,18.98
2022-12-20T14:09:37.769Z,18.10
2022-12-20T14:12:08.085Z,18.10
2022-12-20T14:14:54.063Z,18.10
2022-12-20T14:17:29.737Z,19.30
2022-12-20T14:20:14.233Z,19.33
2022-12-20T14:22:53.300Z,20.08
2022-12-20T14:25:38.572Z,19.92
2022-12-20T14:28:07.246Z,18.77
2022-12-20T14:30:44.424Z,18.92
2022-12-20T14:33:26.290Z,20.62
2022-12-20T14:35:54.080Z,18.73
2022-12-20T14:38:32.268Z,18.90
2022-12-20T14:41:00.121Z,20.40
2022-12-20T14:43:33.727Z,20.40
2022-12-20T14:46:15.243Z,18.12
2022-12-20T14:48:43.037Z,17.67
2022-12-20T14:51:11.250Z,17.23
2022-12-20T14:53:41.329Z,17.45
2022-12-20T14:56:17.516Z,17.35
2022-12-20T14:58:45.269Z,16.67
2022-12-20T15:01:28.832Z,15.45
2022-12-20T15:03:59.035Z,15.93
2022-12-20T15:06:44.648Z,16.02
2022-12-20T15:09:12.734Z,17.12
2022-12-20T15:11:42.385Z,16.73
2022-12-20T15:14:35.162Z,16.83
2022-12-20T15:17:03.987Z,16.17
2022-12-20T15:19:36.244Z,16.00
2022-12-20T15:22:07.140Z,16.42
2022-12-20T15:24:34.864Z,15.43
2022-12-20T15:27:02.550Z,14.90
2022-12-20T15:29:30.788Z,16.67
2022-12-20T15:32:08.531Z,16.37
2022-12-20T15:34:38.989Z,16.55
2022-12-20T15:37:10.294Z,16.08
2022-12-20T15:39:40.387Z,15.05
2022-12-20T15:42:08.740Z,14.90
2022-12-20T15:44:38.503Z,16.05
2022-12-20T15:47:06.420Z,16.52
2022-12-20T15:49:34.394Z,15.30
2022-12-20T15:52:02.104Z,16.10
2022-12-20T15:54:31.658Z,14.80
2022-12-20T15:57:05.323Z,16.45
2022-12-20T15:59:59.182Z,15.43
2022-12-20T16:02:24.795Z,16.90
2022-12-20T16:04:54.343Z,15.88
2022-12-20T16:07:22.840Z,17.02
2022-12-20T16:09:50.785Z,16.08
2022-12-20T16:12:45.156Z,14.95
2022-12-20T16:15:23.768Z,15.60
2022-12-20T16:17:51.483Z,14.82
2022-12-20T16:20:19.535Z,16.37
2022-12-20T16:22:47.228Z,15.40
2022-12-20T16:25:33.791Z,17.23
2022-12-20T16:28:01.549Z,15.57
2022-12-20T16:30:29.604Z,16.80
2022-12-20T16:33:00.174Z,17.25
2022-12-20T16:35:33.909Z,14.68
2022-12-20T16:38:01.701Z,17.40
2022-12-20T16:40:31.964Z,15.88
2022-12-20T16:43:01.365Z,16.60
2022-12-20T16:45:31.261Z,16.33
2022-12-20T16:47:59.960Z,15.85
2022-12-20T16:50:29.117Z,16.60
2022-12-20T16:52:56.925Z,20.02
2022-12-20T16:55:27.228Z,18.15
2022-12-20T16:57:55.499Z,17.17
2022-12-20T17:00:26.337Z,19.87
2022-12-20T17:02:55.087Z,20.50
2022-12-20T17:05:24.595Z,21.33
2022-12-20T17:07:52.286Z,18.37
2022-12-20T17:10:20.061Z,18.62
2022-12-20T17:12:48.040Z,18.30
2022-12-20T17:15:30.852Z,16.77
2022-12-20T17:17:59.474Z,17.00
2022-12-20T17:20:30.041Z,16.45
2022-12-20T17:25:47.431Z,19.25
2022-12-20T17:28:19.763Z,18.02
2022-12-20T17:30:47.434Z,17.37
2022-12-20T17:33:16.459Z,16.48
2022-12-20T17:35:44.195Z,17.08
2022-12-20T17:38:11.861Z,18.27
2022-12-20T17:40:39.574Z,17.50
2022-12-20T17:43:09.089Z,18.02
2022-12-20T17:45:37.621Z,17.48
2022-12-20T17:48:05.931Z,20.15
2022-12-20T17:50:33.673Z,17.12
2022-12-20T17:53:01.538Z,16.90
2022-12-20T17:55:29.635Z,17.08
2022-12-20T17:57:57.697Z,16.92
2022-12-20T18:00:36.410Z,17.20
2022-12-20T18:03:06.719Z,17.25
2022-12-20T18:05:34.649Z,17.25
2022-12-20T18:08:02.410Z,16.70
2022-12-20T18:10:30.178Z,18.80
2022-12-20T18:12:57.844Z,17.98
2022-12-20T18:15:25.941Z,18.00
2022-12-20T18:17:53.740Z,17.95
2022-12-20T18:20:21.476Z,18.12
2022-12-20T18:22:49.271Z,17.30
2022-12-20T18:25:19.302Z,19.33
2022-12-20T18:27:47.146Z,20.02
2022-12-20T18:30:15.162Z,17.20
2022-12-20T18:32:42.783Z,16.75
2022-12-20T18:35:11.151Z,17.52
2022-12-20T18:37:38.883Z,17.27
2022-12-20T18:40:07.455Z,19.83
2022-12-20T18:42:35.224Z,17.25
2022-12-20T18:45:02.950Z,18.60
2022-12-20T18:47:33.511Z,18.25
2022-12-20T18:50:01.407Z,16.85
2022-12-20T18:52:29.188Z,20.52
2022-12-20T18:54:57.737Z,21.15
2022-12-20T18:57:25.447Z,18.62
2022-12-20T18:59:53.163Z,19.98
2022-12-20T19:02:21.028Z,22.15
2022-12-20T19:04:48.916Z,18.50
2022-12-20T19:07:17.307Z,19.65
2022-12-20T19:09:45.167Z,16.42
2022-12-20T19:12:12.784Z,17.92
2022-12-20T19:14:40.529Z,18.70
2022-12-20T19:17:08.353Z,18.50
2022-12-20T19:19:36.018Z,17.60
2022-12-20T19:22:03.762Z,17.30
2022-12-20T19:24:31.461Z,17.62
2022-12-20T19:26:59.151Z,18.83
2022-12-20T19:29:26.829Z,17.98
2022-12-20T19:31:54.504Z,17.55
2022-12-20T19:34:22.173Z,17.77
2022-12-20T19:36:50.145Z,19.73
2022-12-20T19:39:24.499Z,19.70
2022-12-20T19:42:23.061Z,17.10
2022-12-20T19:44:41.245Z,15.98
2022-12-20T19:47:09.040Z,19.40
2022-12-20T19:49:37.018Z,17.80
2022-12-20T19:52:06.894Z,18.02
2022-12-20T19:54:35.234Z,19.27
2022-12-20T19:57:03.017Z,20.15
2022-12-20T19:59:31.782Z,19.45
2022-12-20T20:01:59.638Z,19.37
2022-12-20T20:04:27.589Z,18.67
2022-12-20T20:06:55.418Z,18.67
2022-12-20T20:09:23.259Z,18.17
2022-12-20T20:11:50.997Z,19.98
2022-12-20T20:14:18.714Z,17.58
2022-12-20T20:16:46.480Z,18.60
2022-12-20T20:19:14.308Z,17.48
2022-12-20T20:21:42.035Z,17.95
2022-12-20T20:24:10.919Z,19.08
2022-12-20T20:26:39.103Z,17.95
2022-12-20T20:29:08.344Z,17.15
2022-12-20T20:31:36.123Z,16.95
2022-12-20T20:34:04.651Z,17.87
2022-12-20T20:36:32.409Z,18.20
2022-12-20T20:39:00.168Z,18.17
2022-12-20T20:41:27.934Z,20.77
2022-12-20T20:43:55.619Z,18.80
2022-12-20T20:46:23.893Z,18.35
2022-12-20T20:48:51.862Z,17.83
2022-12-20T20:51:19.547Z,17.20
2022-12-20T20:53:47.239Z,18.05
2022-12-20T20:56:15.100Z,18.48
2022-12-20T20:58:43.861Z,18.33
2022-12-20T21:01:12.313Z,19.08
2022-12-20T21:03:41.290Z,18.33
2022-12-20T21:08:58.523Z,19.45
2022-12-20T21:11:26.316Z,17.83
2022-12-20T21:13:54.743Z,17.75
2022-12-20T21:16:23.315Z,18.87
2022-12-20T21:18:55.775Z,19.60
2022-12-20T21:21:25.064Z,18.90
2022-12-20T21:23:56.834Z,17.42
2022-12-20T21:26:26.617Z,18.17
2022-12-20T21:29:01.244Z,19.83
2022-12-20T21:31:29.360Z,20.67
2022-12-20T21:33:57.839Z,19.33
2022-12-20T21:36:26.019Z,17.25
2022-12-20T21:38:55.997Z,17.62
2022-12-20T21:41:26.447Z,18.70
2022-12-20T21:44:01.562Z,17.80
2022-12-20T21:46:30.727Z,20.60
2022-12-20T21:48:59.942Z,19.67
2022-12-20T21:51:30.305Z,20.65
2022-12-20T21:54:00.392Z,19.08
2022-12-20T21:56:29.587Z,19.60
2022-12-20T21:58:58.563Z,18.25
2022-12-20T22:01:28.511Z,18.62
2022-12-20T22:03:59.877Z,22.00
2022-12-20T22:06:29.204Z,18.92
2022-12-20T22:09:01.739Z,23.67
2022-12-20T22:11:29.771Z,19.12
2022-12-20T22:13:58.386Z,19.92
2022-12-20T22:16:30.335Z,17.40
2022-12-20T22:18:59.842Z,21.67
2022-12-20T22:21:30.050Z,17.05
2022-12-20T22:23:59.002Z,19.45
2022-12-20T22:26:30.183Z,15.43
2022-12-20T22:29:02.338Z,17.60
2022-12-20T22:31:30.674Z,17.75
2022-12-20T22:33:59.312Z,17.30
2022-12-20T22:36:27.885Z,16.95
2022-12-20T22:38:56.830Z,17.00
2022-12-20T22:41:30.869Z,16.55
2022-12-20T22:44:00.321Z,17.48
2022-12-20T22:46:32.269Z,17.30
2022-12-20T22:49:00.718Z,17.80
2022-12-20T22:51:28.848Z,16.75
2022-12-20T22:53:58.630Z,17.17
2022-12-20T22:56:26.359Z,15.50
2022-12-20T22:58:54.441Z,16.80
2022-12-20T23:01:22.894Z,17.27
2022-12-20T23:03:51.554Z,17.40
2022-12-20T23:06:21.792Z,18.33
2022-12-20T23:08:50.042Z,17.08
2022-12-20T23:11:45.501Z,16.80
2022-12-20T23:14:34.490Z,18.93
2022-12-20T23:17:02.901Z,17.25
2022-12-20T23:19:50.734Z,16.17
2022-12-20T23:22:37.744Z,15.73
2022-12-20T23:25:07.773Z,15.35
2022-12-20T23:27:36.348Z,16.85
2022-12-20T23:30:07.068Z,16.37
2022-12-20T23:32:34.821Z,16.65
2022-12-20T23:35:08.329Z,15.27
2022-12-20T23:37:40.043Z,17.48
2022-12-20T23:40:09.102Z,16.52
2022-12-20T23:42:37.248Z,16.33
2022-12-20T23:45:05.412Z,16.33
2022-12-20T23:47:33.518Z,16.90
2022-12-20T23:50:01.142Z,18.02
2022-12-20T23:52:28.915Z,16.60
2022-12-20T23:54:56.563Z,14.93
2022-12-20T23:57:24.365Z,17.15
2022-12-20T23:59:52.021Z,16.73
